Time;durP1;ratioP1;P1;durP2;ratioP2;P2;SDS_P1;SDS_P2;PMS_P1;PMS_P2;Temp;Humidity;BMP_temperature;BMP_pressure;BME280_temperature;BME280_humidity;BME280_pressure;Samples;Min_cycle;Max_cycle;Signal;HPM_P1;HPM_P2
2023/09/20 00:00:33;;;;;;;15.88;3.60;;;17.60;99.90;;;;;;5092988;28;37861;-77
2023/09/20 00:02:59;;;;;;;10.80;3.53;;;17.60;99.90;;;;;;5091078;28;37029;-77
2023/09/20 00:05:26;;;;;;;15.63;4.03;;;17.50;99.90;;;;;;5070098;28;37935;-77
2023/09/20 00:07:56;;;;;;;15.73;3.60;;;17.50;99.90;;;;;;5069606;28;37252;-77
2023/09/20 00:10:22;;;;;;;9.65;3.53;;;17.50;99.90;;;;;;5077271;28;37901;-77
2023/09/20 00:12:49;;;;;;;10.57;3.33;;;17.50;99.90;;;;;;5086417;28;36405;-77
2023/09/20 00:15:15;;;;;;;11.00;4.22;;;17.50;99.90;;;;;;5102485;28;38928;-78
2023/09/20 00:17:41;;;;;;;7.38;2.65;;;17.40;99.90;;;;;;5082568;28;38584;-78
2023/09/20 00:20:19;;;;;;;16.80;3.60;;;17.40;99.90;;;;;;5063131;28;38052;-78
2023/09/20 00:22:45;;;;;;;12.32;3.95;;;17.40;99.90;;;;;;5064820;28;36374;-78
2023/09/20 00:25:14;;;;;;;16.42;4.45;;;17.40;99.90;;;;;;5068178;28;37627;-78
2023/09/20 00:27:45;;;;;;;12.57;3.72;;;17.40;99.90;;;;;;5091679;28;39346;-78
2023/09/20 00:30:14;;;;;;;16.23;4.13;;;17.40;99.90;;;;;;5069009;28;38057;-77
2023/09/20 00:32:41;;;;;;;10.40;3.30;;;17.40;99.90;;;;;;5076004;28;36530;-77
2023/09/20 00:35:12;;;;;;;12.40;3.85;;;17.40;99.90;;;;;;5067503;28;38843;-76
2023/09/20 00:37:40;;;;;;;13.27;3.65;;;17.50;99.90;;;;;;5078385;28;37687;-77
2023/09/20 00:40:20;;;;;;;13.70;3.38;;;17.50;99.90;;;;;;5076606;28;39193;-77
2023/09/20 00:42:49;;;;;;;16.23;3.55;;;17.60;99.90;;;;;;5060454;28;36547;-78
2023/09/20 00:45:16;;;;;;;11.75;3.60;;;17.60;99.90;;;;;;5065063;28;37861;-77
2023/09/20 00:47:55;;;;;;;12.07;3.60;;;17.60;99.90;;;;;;5067785;28;38405;-78
2023/09/20 00:50:22;;;;;;;12.23;3.85;;;17.60;99.90;;;;;;5065350;28;37033;-78
2023/09/20 00:52:54;;;;;;;16.27;4.05;;;17.60;99.90;;;;;;5058032;28;36299;-76
2023/09/20 00:55:25;;;;;;;15.45;3.65;;;17.60;99.90;;;;;;5081905;28;38589;-77
2023/09/20 00:57:57;;;;;;;14.93;3.92;;;17.60;99.90;;;;;;5084488;28;37927;-77
2023/09/20 01:00:29;;;;;;;13.73;3.53;;;17.70;99.90;;;;;;5089336;28;37989;-77
2023/09/20 01:02:57;;;;;;;11.10;3.80;;;17.80;99.90;;;;;;5058574;28;37337;-78
2023/09/20 01:05:47;;;;;;;15.77;4.18;;;17.80;99.90;;;;;;5078969;28;38788;-78
2023/09/20 01:08:11;;;;;;;11.07;3.95;;;17.80;99.90;;;;;;5078536;27;39496;-78
2023/09/20 01:10:37;;;;;;;12.65;3.90;;;17.80;99.90;;;;;;5064397;28;38215;-78
2023/09/20 01:13:06;;;;;;;9.50;3.42;;;17.80;99.90;;;;;;5093602;28;37192;-78
2023/09/20 01:15:34;;;;;;;15.60;4.28;;;17.90;99.90;;;;;;5090254;28;38983;-78
2023/09/20 01:18:03;;;;;;;9.75;3.55;;;17.90;99.90;;;;;;5085829;28;38280;-77
2023/09/20 01:20:31;;;;;;;13.38;4.05;;;17.90;99.90;;;;;;5085680;28;48767;-78
2023/09/20 01:22:58;;;;;;;14.20;3.50;;;17.90;99.90;;;;;;5087522;28;38353;-77
2023/09/20 01:25:27;;;;;;;13.70;3.92;;;17.90;99.90;;;;;;5081087;28;39429;-77
2023/09/20 01:28:04;;;;;;;13.45;3.85;;;17.80;99.90;;;;;;5088065;28;38450;-78
2023/09/20 01:30:33;;;;;;;15.82;3.25;;;17.80;99.90;;;;;;5081039;28;47367;-78
2023/09/20 01:33:00;;;;;;;12.60;3.88;;;17.80;99.90;;;;;;5066855;28;36191;-78
2023/09/20 01:35:28;;;;;;;11.45;3.58;;;17.80;99.90;;;;;;5064682;28;38218;-77
2023/09/20 01:37:55;;;;;;;13.98;4.05;;;17.80;99.90;;;;;;5081024;28;38595;-77
2023/09/20 01:40:33;;;;;;;17.77;4.78;;;17.80;99.90;;;;;;5083439;28;38064;-77
2023/09/20 01:43:00;;;;;;;11.48;3.83;;;17.70;99.90;;;;;;5089581;28;36662;-77
2023/09/20 01:45:27;;;;;;;10.32;4.00;;;17.70;99.90;;;;;;5063651;28;37860;-77
2023/09/20 01:47:55;;;;;;;13.40;4.15;;;17.60;99.90;;;;;;5084972;28;36871;-77
2023/09/20 01:50:23;;;;;;;10.95;3.78;;;17.50;99.90;;;;;;5068263;28;37128;-77
2023/09/20 01:52:50;;;;;;;9.80;3.72;;;17.40;99.90;;;;;;5060104;28;36039;-77
2023/09/20 01:55:20;;;;;;;11.73;4.10;;;17.40;99.90;;;;;;5082857;28;38771;-77
2023/09/20 01:57:48;;;;;;;12.88;3.55;;;17.40;99.90;;;;;;5063920;28;37330;-77
2023/09/20 02:00:22;;;;;;;12.18;3.97;;;17.40;99.90;;;;;;5078312;28;40621;-78
2023/09/20 02:02:50;;;;;;;12.23;3.65;;;17.30;99.90;;;;;;5083995;28;37154;-77
2023/09/20 02:05:17;;;;;;;12.05;3.45;;;17.40;99.90;;;;;;5066753;28;37944;-76
2023/09/20 02:07:45;;;;;;;11.23;3.28;;;17.40;99.90;;;;;;5087933;28;38756;-78
2023/09/20 02:10:11;;;;;;;11.77;3.78;;;17.40;99.90;;;;;;5057410;28;36707;-77
2023/09/20 02:12:37;;;;;;;12.48;3.38;;;17.40;99.90;;;;;;5090871;28;38002;-77
2023/09/20 02:15:07;;;;;;;5.10;2.85;;;17.50;99.90;;;;;;5082995;28;38749;-77
2023/09/20 02:17:38;;;;;;;14.30;3.38;;;17.50;99.90;;;;;;5068835;28;47158;-77
2023/09/20 02:20:11;;;;;;;16.10;3.97;;;17.50;99.90;;;;;;5072686;28;38182;-77
2023/09/20 02:22:40;;;;;;;10.77;3.50;;;17.50;99.90;;;;;;5084132;28;48488;-77
2023/09/20 02:25:11;;;;;;;10.35;3.70;;;17.50;99.90;;;;;;5066490;28;37882;-77
2023/09/20 02:27:42;;;;;;;10.20;3.22;;;17.60;99.90;;;;;;5071645;28;38397;-76
2023/09/20 02:30:15;;;;;;;11.18;3.40;;;17.60;99.90;;;;;;5066073;28;38261;-76
2023/09/20 02:32:42;;;;;;;13.82;3.88;;;17.60;99.90;;;;;;5062156;28;37363;-77
2023/09/20 02:35:09;;;;;;;14.93;4.18;;;17.70;99.90;;;;;;5078843;28;40223;-76
2023/09/20 02:37:37;;;;;;;13.40;3.92;;;17.70;99.90;;;;;;5075714;28;38761;-77
2023/09/20 02:40:13;;;;;;;13.50;3.70;;;17.70;99.90;;;;;;5080118;28;39030;-76
2023/09/20 02:42:43;;;;;;;10.45;3.03;;;17.70;99.90;;;;;;5053523;28;49274;-76
2023/09/20 02:45:13;;;;;;;13.40;3.80;;;17.70;99.90;;;;;;5068148;28;38954;-77
2023/09/20 02:47:40;;;;;;;10.00;3.35;;;17.70;99.90;;;;;;5078994;28;38175;-77
2023/09/20 02:50:12;;;;;;;13.13;3.58;;;17.80;99.90;;;;;;5081162;28;38088;-76
2023/09/20 02:52:41;;;;;;;9.93;3.10;;;17.80;99.90;;;;;;5071548;28;37424;-76
2023/09/20 02:55:08;;;;;;;14.60;3.92;;;17.80;99.90;;;;;;5084068;28;39667;-77
2023/09/20 02:57:38;;;;;;;14.63;3.53;;;17.80;99.90;;;;;;5077002;28;38352;-77
2023/09/20 03:00:16;;;;;;;13.20;3.40;;;17.90;99.90;;;;;;5093835;28;37639;-76
2023/09/20 03:02:49;;;;;;;14.27;3.92;;;17.90;99.90;;;;;;5059548;28;38342;-77
2023/09/20 03:05:21;;;;;;;9.52;3.30;;;17.80;99.90;;;;;;5070904;28;38508;-78
2023/09/20 03:07:50;;;;;;;8.48;2.75;;;17.80;99.90;;;;;;5062267;28;38422;-78
2023/09/20 03:10:19;;;;;;;11.88;2.90;;;17.80;99.90;;;;;;5069162;28;38386;-77
2023/09/20 03:12:46;;;;;;;8.45;3.13;;;17.80;99.90;;;;;;5081597;28;36096;-77
2023/09/20 03:15:19;;;;;;;12.60;3.90;;;17.80;99.90;;;;;;5085975;28;38504;-78
2023/09/20 03:17:45;;;;;;;;;;;17.80;99.90;;;;;;5083878;28;38745;-78
2023/09/20 03:20:12;;;;;;;9.43;3.60;;;17.80;99.90;;;;;;5086195;28;38117;-78
2023/09/20 03:22:38;;;;;;;12.23;3.17;;;17.80;99.90;;;;;;5071463;28;35487;-77
2023/09/20 03:25:09;;;;;;;11.75;2.88;;;17.80;99.90;;;;;;5080635;28;37821;-78
2023/09/20 03:27:40;;;;;;;8.30;3.42;;;17.70;99.90;;;;;;5062901;28;38548;-77
2023/09/20 03:30:10;;;;;;;9.93;3.42;;;17.70;99.90;;;;;;5084459;28;38127;-78
2023/09/20 03:32:39;;;;;;;8.85;2.97;;;17.70;99.90;;;;;;5056698;28;36563;-77
2023/09/20 03:35:06;;;;;;;6.85;2.90;;;17.70;99.90;;;;;;5069019;28;39010;-78
2023/09/20 03:37:33;;;;;;;9.52;3.17;;;17.60;99.90;;;;;;5088691;28;38550;-77
2023/09/20 03:39:59;;;;;;;8.10;2.90;;;17.60;99.90;;;;;;5080202;28;37808;-77
2023/09/20 03:42:25;;;;;;;7.45;2.72;;;17.50;99.90;;;;;;5066528;28;35819;-77
2023/09/20 03:44:51;;;;;;;11.35;2.70;;;17.50;99.90;;;;;;5081486;28;38183;-77
2023/09/20 03:47:18;;;;;;;9.40;2.97;;;17.50;99.90;;;;;;5087569;28;38248;-77
2023/09/20 03:49:44;;;;;;;8.85;3.28;;;17.50;99.90;;;;;;5084653;28;38141;-77
2023/09/20 03:52:10;;;;;;;7.95;3.03;;;17.50;99.90;;;;;;5077167;28;37510;-77
2023/09/20 03:54:36;;;;;;;9.40;3.10;;;17.60;99.90;;;;;;5098099;28;38126;-78
2023/09/20 03:57:04;;;;;;;7.97;2.72;;;17.60;99.90;;;;;;5097225;28;39176;-78
2023/09/20 03:59:32;;;;;;;11.10;2.80;;;17.60;99.90;;;;;;5077696;28;37350;-78
2023/09/20 04:01:58;;;;;;;11.05;3.63;;;17.60;99.90;;;;;;5081433;28;36992;-77
2023/09/20 04:04:24;;;;;;;8.15;3.20;;;17.60;99.90;;;;;;5096024;28;38605;-77
2023/09/20 04:06:50;;;;;;;7.35;2.42;;;17.60;99.90;;;;;;5088843;28;38511;-78
2023/09/20 04:09:17;;;;;;;11.23;2.92;;;17.60;99.90;;;;;;5069762;28;38319;-77
2023/09/20 04:11:43;;;;;;;14.02;3.30;;;17.50;99.90;;;;;;5066172;28;35954;-77
2023/09/20 04:14:09;;;;;;;10.95;2.97;;;17.50;99.90;;;;;;5089424;28;38040;-77
2023/09/20 04:16:40;;;;;;;6.38;2.90;;;17.50;99.90;;;;;;5069842;28;37679;-76
2023/09/20 04:19:06;;;;;;;12.10;3.25;;;17.40;99.90;;;;;;5079818;28;37214;-78
2023/09/20 04:21:33;;;;;;;7.47;2.85;;;17.40;99.90;;;;;;5083722;28;37279;-78
2023/09/20 04:23:59;;;;;;;11.00;3.10;;;17.30;99.90;;;;;;5064944;28;37581;-78
2023/09/20 04:26:26;;;;;;;10.85;3.08;;;17.30;99.90;;;;;;5083064;28;39024;-77
2023/09/20 04:28:52;;;;;;;13.13;3.42;;;17.30;99.90;;;;;;5086240;28;37898;-77
2023/09/20 04:31:18;;;;;;;12.10;3.70;;;17.20;99.90;;;;;;5068779;28;36688;-78
2023/09/20 04:33:45;;;;;;;15.23;3.63;;;17.20;99.90;;;;;;5083831;28;39929;-77
2023/09/20 04:36:12;;;;;;;13.18;3.00;;;17.20;99.90;;;;;;5066484;28;35595;-79
2023/09/20 04:38:38;;;;;;;13.45;3.92;;;17.20;99.90;;;;;;5081984;28;37996;-77
2023/09/20 04:41:11;;;;;;;10.95;3.20;;;17.20;99.90;;;;;;5065457;28;35924;-77
2023/09/20 04:43:38;;;;;;;7.47;2.60;;;17.10;99.90;;;;;;5073470;28;39128;-77
2023/09/20 04:46:06;;;;;;;11.50;3.30;;;17.10;99.90;;;;;;5051961;28;37318;-77
2023/09/20 04:48:33;;;;;;;10.38;3.20;;;17.10;99.90;;;;;;5083706;28;38970;-77
2023/09/20 04:51:00;;;;;;;9.75;3.40;;;17.10;99.90;;;;;;5069168;28;37822;-77
2023/09/20 04:53:26;;;;;;;10.85;2.83;;;17.10;99.90;;;;;;5060638;28;39847;-78
2023/09/20 04:55:52;;;;;;;13.90;3.97;;;17.00;99.90;;;;;;5070249;28;37363;-77
2023/09/20 04:58:18;;;;;;;8.80;3.67;;;17.10;99.90;;;;;;5076394;28;37397;-78
2023/09/20 05:00:45;;;;;;;7.13;3.10;;;17.00;99.90;;;;;;5076699;28;36920;-82
2023/09/20 05:03:11;;;;;;;8.27;3.42;;;17.00;99.90;;;;;;5076971;28;38954;-79
2023/09/20 05:05:37;;;;;;;11.13;3.00;;;17.00;99.90;;;;;;5071143;28;36863;-78
2023/09/20 05:08:04;;;;;;;11.95;3.72;;;17.00;99.90;;;;;;5078261;28;36990;-80
2023/09/20 05:10:30;;;;;;;14.38;3.90;;;17.00;99.90;;;;;;5064626;28;37969;-80
2023/09/20 05:12:56;;;;;;;11.90;3.17;;;16.90;99.90;;;;;;5076305;28;38891;-79
2023/09/20 05:15:23;;;;;;;10.50;3.60;;;16.90;99.90;;;;;;5077382;28;37481;-77
2023/09/20 05:17:49;;;;;;;8.43;3.28;;;16.90;99.90;;;;;;5080513;28;37948;-82
2023/09/20 05:20:16;;;;;;;9.60;3.58;;;16.90;99.90;;;;;;5061136;28;36563;-81
2023/09/20 05:22:42;;;;;;;8.43;3.08;;;16.90;99.90;;;;;;5082065;28;38960;-81
2023/09/20 05:25:09;;;;;;;10.32;3.55;;;17.00;99.90;;;;;;5077929;28;39212;-78
2023/09/20 05:27:36;;;;;;;12.00;3.92;;;17.00;99.90;;;;;;5064057;28;38142;-79
2023/09/20 05:30:03;;;;;;;9.95;3.63;;;17.00;99.90;;;;;;5057088;28;36155;-80
2023/09/20 05:32:29;;;;;;;7.95;2.85;;;17.00;99.90;;;;;;5080477;28;38129;-78
2023/09/20 05:34:55;;;;;;;7.03;2.83;;;17.00;99.90;;;;;;5083332;28;39293;-77
2023/09/20 05:37:22;;;;;;;9.65;3.13;;;17.00;99.90;;;;;;5060662;28;37183;-78
2023/09/20 05:39:49;;;;;;;9.10;3.25;;;17.00;99.90;;;;;;5084816;28;37831;-79
2023/09/20 05:42:15;;;;;;;11.85;3.25;;;17.00;99.90;;;;;;5066142;28;37795;-78
2023/09/20 05:44:42;;;;;;;10.57;3.50;;;17.10;99.90;;;;;;5063070;28;37435;-77
2023/09/20 05:47:09;;;;;;;10.85;3.35;;;17.10;99.90;;;;;;5071479;28;38290;-79
2023/09/20 05:49:35;;;;;;;10.52;3.10;;;17.00;99.90;;;;;;5066960;28;36313;-80
2023/09/20 05:52:05;;;;;;;12.80;2.92;;;17.00;99.90;;;;;;5081843;28;39164;-80
2023/09/20 05:54:32;;;;;;;12.02;2.92;;;17.00;99.90;;;;;;5070237;28;48519;-82
2023/09/20 05:56:59;;;;;;;8.07;2.67;;;17.00;99.90;;;;;;5080117;28;37073;-81
2023/09/20 05:59:26;;;;;;;7.85;3.08;;;17.00;99.90;;;;;;5074046;28;36688;-80
2023/09/20 06:01:53;;;;;;;10.02;3.00;;;17.00;99.90;;;;;;5066644;28;38026;-77
2023/09/20 06:04:19;;;;;;;9.02;2.90;;;17.00;99.90;;;;;;5065621;28;37171;-78
2023/09/20 06:06:45;;;;;;;8.27;3.25;;;17.00;99.90;;;;;;5071756;28;37043;-77
2023/09/20 06:09:11;;;;;;;11.52;3.08;;;17.00;99.90;;;;;;5087092;28;34776;-80
2023/09/20 06:11:37;;;;;;;11.40;3.10;;;17.00;99.90;;;;;;5102472;28;39329;-84
2023/09/20 06:14:08;;;;;;;10.18;2.85;;;17.00;99.90;;;;;;5083120;28;38225;-80
2023/09/20 06:16:34;;;;;;;8.73;2.50;;;17.00;99.90;;;;;;5091050;28;39530;-78
2023/09/20 06:19:00;;;;;;;15.25;3.03;;;17.10;99.90;;;;;;5080940;28;37810;-79
2023/09/20 06:21:26;;;;;;;8.43;2.97;;;17.10;99.90;;;;;;5087407;28;37804;-79
2023/09/20 06:23:52;;;;;;;15.93;3.60;;;17.10;99.90;;;;;;5094214;28;38331;-82
2023/09/20 06:26:18;;;;;;;10.15;2.60;;;17.10;99.90;;;;;;5093713;28;37441;-81
2023/09/20 06:28:44;;;;;;;7.70;2.65;;;17.10;99.90;;;;;;5096912;28;37090;-80
2023/09/20 06:31:13;;;;;;;9.30;2.80;;;17.10;99.90;;;;;;5085569;28;37589;-80
2023/09/20 06:33:42;;;;;;;13.23;3.00;;;17.10;99.90;;;;;;5067282;28;38096;-81
2023/09/20 06:36:08;;;;;;;9.80;3.00;;;17.10;99.90;;;;;;5068292;28;37175;-81
2023/09/20 06:38:34;;;;;;;7.90;2.50;;;17.10;99.90;;;;;;5062004;28;37427;-81
2023/09/20 06:41:04;;;;;;;8.98;2.70;;;17.10;99.90;;;;;;5069781;28;37610;-82
2023/09/20 06:43:30;;;;;;;9.45;2.60;;;17.10;99.90;;;;;;5087104;28;48814;-79
2023/09/20 06:45:57;;;;;;;10.70;2.80;;;17.10;99.90;;;;;;5073321;28;38877;-79
2023/09/20 06:48:24;;;;;;;6.13;2.67;;;17.10;99.90;;;;;;5085784;28;36946;-81
2023/09/20 06:50:52;;;;;;;7.13;2.90;;;17.10;99.90;;;;;;5091243;28;38715;-80
2023/09/20 06:53:19;;;;;;;6.80;2.40;;;17.10;99.90;;;;;;5098767;28;39029;-80
2023/09/20 06:55:48;;;;;;;7.57;2.50;;;17.10;99.90;;;;;;5088984;28;38517;-80
2023/09/20 06:58:17;;;;;;;12.32;2.80;;;17.10;99.90;;;;;;5091258;28;37331;-81
2023/09/20 07:00:44;;;;;;;7.97;2.78;;;17.10;99.90;;;;;;5084647;28;37643;-81
2023/09/20 07:03:10;;;;;;;11.43;3.08;;;17.10;99.90;;;;;;5079600;28;37360;-81
2023/09/20 07:05:36;;;;;;;10.88;2.85;;;17.10;99.90;;;;;;5090094;28;38760;-82
2023/09/20 07:08:04;;;;;;;4.85;2.47;;;17.10;99.90;;;;;;5085834;28;36069;-81
2023/09/20 07:10:34;;;;;;;8.45;2.70;;;17.10;99.90;;;;;;5098697;28;39043;-80
2023/09/20 07:13:00;;;;;;;9.25;2.80;;;17.10;99.90;;;;;;5098033;28;38895;-80
2023/09/20 07:15:28;;;;;;;5.97;2.45;;;17.20;99.90;;;;;;5072332;28;37077;-82
2023/09/20 07:18:01;;;;;;;9.68;3.03;;;17.20;99.90;;;;;;5083406;28;36049;-82
2023/09/20 07:20:28;;;;;;;6.97;2.80;;;17.20;99.90;;;;;;5089004;28;47713;-81
2023/09/20 07:22:55;;;;;;;10.55;3.22;;;17.20;99.90;;;;;;5090807;28;37499;-80
2023/09/20 07:25:23;;;;;;;5.78;2.40;;;17.20;99.90;;;;;;5082652;28;36721;-80
2023/09/20 07:27:50;;;;;;;6.03;2.90;;;17.20;99.90;;;;;;5082226;28;37270;-81
2023/09/20 07:30:18;;;;;;;8.23;3.10;;;17.20;99.90;;;;;;5079245;28;39223;-81
2023/09/20 07:32:51;;;;;;;7.47;2.97;;;17.20;99.90;;;;;;5091500;28;38318;-81
2023/09/20 07:35:26;;;;;;;7.65;3.22;;;17.20;99.90;;;;;;5068251;28;36938;-82
2023/09/20 07:37:57;;;;;;;6.40;2.90;;;17.20;99.90;;;;;;5081534;28;36432;-81
2023/09/20 07:40:28;;;;;;;9.95;3.47;;;17.20;99.90;;;;;;5074292;28;37758;-83
2023/09/20 07:43:06;;;;;;;9.60;3.20;;;17.20;99.90;;;;;;5105090;28;37294;-81
2023/09/20 07:45:38;;;;;;;9.07;3.58;;;17.20;99.90;;;;;;5080553;28;47182;-81
2023/09/20 07:48:13;;;;;;;6.50;3.28;;;17.20;99.90;;;;;;5074210;28;37363;-82
2023/09/20 07:50:40;;;;;;;4.40;2.83;;;17.30;99.90;;;;;;5080034;28;38719;-80
2023/09/20 07:53:10;;;;;;;5.68;2.85;;;17.30;99.90;;;;;;5086485;28;37644;-81
2023/09/20 07:55:48;;;;;;;8.68;3.17;;;17.30;99.90;;;;;;5082577;28;38353;-82
2023/09/20 07:58:15;;;;;;;7.68;3.00;;;17.40;99.90;;;;;;5101771;28;36808;-80
2023/09/20 08:00:45;;;;;;;6.82;2.88;;;17.40;99.90;;;;;;5078520;28;38058;-80
2023/09/20 08:03:12;;;;;;;6.78;2.90;;;17.40;99.90;;;;;;5076545;28;37232;-80
2023/09/20 08:05:41;;;;;;;11.55;3.28;;;17.50;99.90;;;;;;5071666;28;38565;-79
2023/09/20 08:08:10;;;;;;;7.50;2.72;;;17.50;99.90;;;;;;5093739;28;38192;-80
2023/09/20 08:10:38;;;;;;;7.38;3.35;;;17.50;99.90;;;;;;5107645;28;39035;-80
2023/09/20 08:13:05;;;;;;;5.38;2.70;;;17.50;99.90;;;;;;5075790;28;37470;-81
2023/09/20 08:15:36;;;;;;;8.82;3.03;;;17.40;99.90;;;;;;5074511;28;36869;-79
2023/09/20 08:20:47;;;;;;;8.48;2.97;;;17.50;99.90;;;;;;5096912;28;39474;-82
2023/09/20 09:01:48;;;;;;;7.03;2.83;;;17.80;99.90;;;;;;5082389;28;49617;-78
2023/09/20 09:04:17;;;;;;;9.48;3.20;;;17.90;99.90;;;;;;5064262;28;38011;-81
2023/09/20 09:06:44;;;;;;;7.47;2.80;;;17.90;99.90;;;;;;5071194;28;37376;-80
2023/09/20 09:09:10;;;;;;;8.82;3.08;;;17.90;99.90;;;;;;5088992;28;38522;-78
2023/09/20 09:11:37;;;;;;;9.27;2.60;;;18.00;99.90;;;;;;5089346;28;37075;-80
2023/09/20 09:14:03;;;;;;;6.78;2.58;;;18.00;99.90;;;;;;5091490;28;37751;-79
2023/09/20 09:16:33;;;;;;;7.85;2.97;;;17.90;99.90;;;;;;5097196;28;38323;-80
2023/09/20 09:19:00;;;;;;;7.00;2.85;;;18.00;99.90;;;;;;5063155;28;37635;-80
2023/09/20 09:21:27;;;;;;;6.82;2.85;;;18.00;99.90;;;;;;5084362;28;36693;-80
2023/09/20 09:23:53;;;;;;;8.55;2.67;;;18.00;99.90;;;;;;5090271;28;39504;-80
2023/09/20 09:26:19;;;;;;;9.23;3.38;;;18.00;99.90;;;;;;5087967;28;38132;-79
2023/09/20 09:28:46;;;;;;;6.18;2.80;;;18.00;99.90;;;;;;5089240;28;37962;-78
2023/09/20 09:31:13;;;;;;;8.27;2.60;;;18.10;99.90;;;;;;5094970;28;38738;-81
2023/09/20 09:33:40;;;;;;;7.85;2.65;;;18.00;99.90;;;;;;5091518;28;38521;-80
2023/09/20 09:36:07;;;;;;;5.85;2.80;;;18.00;99.90;;;;;;5067748;28;37255;-80
2023/09/20 09:38:34;;;;;;;7.47;3.25;;;18.10;99.90;;;;;;5067090;28;36747;-80
2023/09/20 09:41:02;;;;;;;6.80;2.78;;;18.10;99.90;;;;;;5086199;28;36697;-80
2023/09/20 09:43:29;;;;;;;10.95;3.53;;;18.10;99.90;;;;;;5082727;28;47381;-79
2023/09/20 09:46:09;;;;;;;6.03;2.90;;;18.10;99.90;;;;;;5079355;28;37568;-79
2023/09/20 09:48:39;;;;;;;6.35;2.95;;;18.20;99.90;;;;;;5086182;28;48712;-80
2023/09/20 09:51:06;;;;;;;5.57;2.95;;;18.30;99.90;;;;;;5078357;28;38616;-80
2023/09/20 09:53:35;;;;;;;10.60;2.83;;;18.40;99.90;;;;;;5080004;28;38854;-80
2023/09/20 09:56:03;;;;;;;7.07;2.45;;;18.50;99.90;;;;;;5090403;28;38390;-81
2023/09/20 09:58:29;;;;;;;6.93;2.80;;;18.50;99.90;;;;;;5074082;28;47420;-81
2023/09/20 10:00:57;;;;;;;4.50;2.67;;;18.60;99.90;;;;;;5089521;28;35805;-80
2023/09/20 10:03:27;;;;;;;7.50;3.20;;;18.60;99.90;;;;;;5071700;28;37731;-80
2023/09/20 10:06:18;;;;;;;9.07;3.42;;;18.60;99.90;;;;;;5101393;28;39163;-79
2023/09/20 10:08:48;;;;;;;6.53;3.42;;;18.60;99.90;;;;;;5061410;28;47547;-79
2023/09/20 10:11:14;;;;;;;8.50;2.97;;;18.60;99.90;;;;;;5081670;28;36029;-81
2023/09/20 10:13:41;;;;;;;6.07;2.92;;;18.70;99.90;;;;;;5070230;28;38877;-80
2023/09/20 10:16:11;;;;;;;6.22;2.58;;;18.70;99.90;;;;;;5089458;28;39385;-81
2023/09/20 10:18:51;;;;;;;6.32;2.78;;;18.70;99.90;;;;;;5089690;28;38033;-82
2023/09/20 10:21:20;;;;;;;3.88;2.38;;;18.70;99.90;;;;;;5080791;28;36076;-84
2023/09/20 10:23:47;;;;;;;6.55;2.97;;;18.60;99.90;;;;;;5080917;28;40318;-82
2023/09/20 10:26:15;;;;;;;7.25;2.75;;;18.60;99.90;;;;;;5087845;28;37506;-83
2023/09/20 10:28:44;;;;;;;7.97;2.83;;;18.70;99.90;;;;;;5064775;28;37113;-85
2023/09/20 10:31:18;;;;;;;6.78;3.58;;;18.70;99.90;;;;;;5059270;28;37415;-83
2023/09/20 10:33:57;;;;;;;5.22;2.67;;;18.80;99.90;;;;;;5077021;28;37537;-83
2023/09/20 10:36:31;;;;;;;6.97;2.50;;;19.00;99.90;;;;;;5056783;28;38624;-82
2023/09/20 10:39:18;;;;;;;4.68;2.35;;;19.10;99.90;;;;;;5077845;28;36952;-82
2023/09/20 10:41:45;;;;;;;9.82;3.10;;;19.30;99.90;;;;;;5057863;28;47227;-83
2023/09/20 10:44:41;;;;;;;8.27;2.67;;;19.40;99.90;;;;;;5059299;28;38991;-78
2023/09/20 10:47:17;;;;;;;8.32;3.00;;;19.40;99.90;;;;;;5080452;28;38524;-82
2023/09/20 10:49:49;;;;;;;6.05;2.70;;;19.40;99.90;;;;;;5064374;28;37226;-78
2023/09/20 10:52:33;;;;;;;7.05;2.95;;;19.50;99.90;;;;;;5087257;28;38415;-76
2023/09/20 10:55:17;;;;;;;6.32;2.97;;;20.10;99.90;;;;;;5086523;28;39059;-77
2023/09/20 10:57:43;;;;;;;5.55;2.58;;;20.50;99.90;;;;;;5078170;28;47131;-77
2023/09/20 11:00:09;;;;;;;6.30;2.60;;;20.80;99.90;;;;;;5070709;28;37446;-77
2023/09/20 11:02:38;;;;;;;5.90;2.75;;;20.70;99.90;;;;;;5090454;28;36485;-75
2023/09/20 11:05:05;;;;;;;7.25;2.97;;;20.60;99.90;;;;;;5090170;28;37721;-76
2023/09/20 11:07:32;;;;;;;7.28;3.13;;;20.50;99.90;;;;;;5091127;28;48642;-77
2023/09/20 11:09:59;;;;;;;5.07;2.88;;;20.50;99.90;;;;;;5070639;28;37962;-76
2023/09/20 11:12:25;;;;;;;9.25;3.42;;;20.40;99.90;;;;;;5102051;28;36703;-77
2023/09/20 11:14:51;;;;;;;9.55;2.88;;;20.40;99.90;;;;;;5081466;28;37499;-78
2023/09/20 11:17:18;;;;;;;7.43;3.08;;;20.40;99.90;;;;;;5082310;28;38527;-75
2023/09/20 11:19:45;;;;;;;10.40;3.20;;;20.30;99.90;;;;;;5101210;28;38780;-77
2023/09/20 11:22:14;;;;;;;6.10;3.13;;;20.40;99.90;;;;;;5093568;28;37765;-77
2023/09/20 11:24:41;;;;;;;6.32;3.08;;;20.30;99.90;;;;;;5086299;28;38638;-77
2023/09/20 11:27:08;;;;;;;5.25;2.67;;;20.20;99.90;;;;;;5085463;28;38158;-76
2023/09/20 11:29:37;;;;;;;9.70;3.05;;;20.40;99.90;;;;;;5067754;28;36941;-80
2023/09/20 11:32:03;;;;;;;8.63;3.00;;;20.40;99.90;;;;;;5080647;28;38711;-79
2023/09/20 11:34:43;;;;;;;7.13;2.75;;;20.40;99.90;;;;;;5091065;28;37119;-79
2023/09/20 11:37:09;;;;;;;7.20;2.70;;;20.50;99.90;;;;;;5085078;28;39745;-79
2023/09/20 11:39:36;;;;;;;7.65;2.97;;;20.60;99.90;;;;;;5100919;28;37729;-79
2023/09/20 11:42:04;;;;;;;5.88;2.88;;;20.60;99.90;;;;;;5070959;28;37107;-78
2023/09/20 11:44:36;;;;;;;7.22;2.97;;;20.60;99.90;;;;;;5071062;28;47132;-78
2023/09/20 11:47:05;;;;;;;10.75;3.55;;;20.60;99.90;;;;;;5082101;28;38990;-77
2023/09/20 11:49:33;;;;;;;9.32;3.20;;;20.60;99.90;;;;;;5080445;28;37916;-77
2023/09/20 11:52:01;;;;;;;6.82;3.10;;;20.70;99.90;;;;;;5063115;28;35825;-76
2023/09/20 11:54:32;;;;;;;7.95;3.00;;;20.70;99.90;;;;;;5063566;28;38265;-77
2023/09/20 11:57:00;;;;;;;9.32;2.75;;;20.80;99.90;;;;;;5068555;28;36199;-78
2023/09/20 11:59:26;;;;;;;5.63;2.80;;;20.80;99.90;;;;;;5095178;28;38752;-79
2023/09/20 12:01:52;;;;;;;5.15;2.33;;;20.80;99.20;;;;;;5084951;28;36791;-78
2023/09/20 12:04:18;;;;;;;8.80;3.00;;;20.70;99.90;;;;;;5090100;28;37927;-78
2023/09/20 12:06:45;;;;;;;6.28;2.88;;;20.60;99.90;;;;;;5085948;28;38569;-78
2023/09/20 12:09:12;;;;;;;4.95;2.83;;;20.50;99.90;;;;;;5084457;28;37954;-79
2023/09/20 12:11:40;;;;;;;6.30;2.97;;;20.50;99.90;;;;;;5101087;28;36885;-79
2023/09/20 12:14:12;;;;;;;5.43;2.58;;;20.40;99.90;;;;;;5086465;28;37991;-77
2023/09/20 12:16:38;;;;;;;5.18;2.33;;;20.40;99.90;;;;;;5089042;28;39231;-78
2023/09/20 12:19:08;;;;;;;6.32;2.80;;;20.40;99.90;;;;;;5088547;28;38299;-77
2023/09/20 12:21:34;;;;;;;7.43;2.83;;;20.40;99.90;;;;;;5100156;28;38016;-80
2023/09/20 12:24:00;;;;;;;7.70;3.10;;;20.30;99.90;;;;;;5082109;28;38695;-79
2023/09/20 12:26:26;;;;;;;8.43;2.75;;;20.40;99.90;;;;;;5059422;28;38580;-78
2023/09/20 12:28:52;;;;;;;6.55;2.70;;;20.30;99.90;;;;;;5066903;28;37220;-79
2023/09/20 12:31:23;;;;;;;8.43;3.17;;;20.30;99.90;;;;;;5085190;28;36827;-79
2023/09/20 12:33:52;;;;;;;6.07;2.58;;;20.40;99.90;;;;;;5071600;28;39064;-79
2023/09/20 12:36:21;;;;;;;6.47;2.90;;;20.50;99.90;;;;;;5069471;27;37507;-78
2023/09/20 12:38:47;;;;;;;5.10;2.40;;;20.50;99.90;;;;;;5066382;28;37375;-78
2023/09/20 12:41:15;;;;;;;5.63;2.67;;;20.60;99.90;;;;;;5091722;28;38029;-80
2023/09/20 12:43:41;;;;;;;5.75;2.95;;;20.70;99.00;;;;;;5068843;28;37986;-78
2023/09/20 12:46:07;;;;;;;5.97;3.17;;;20.80;99.90;;;;;;5083206;28;37297;-75
2023/09/20 12:48:36;;;;;;;7.90;2.80;;;21.00;97.10;;;;;;5064074;28;37941;-77
2023/09/20 12:51:04;;;;;;;5.38;2.63;;;21.10;98.00;;;;;;5083910;28;37306;-76
2023/09/20 12:53:32;;;;;;;6.15;2.70;;;21.20;94.00;;;;;;5080129;28;38711;-76
2023/09/20 12:55:58;;;;;;;6.80;2.97;;;21.30;94.20;;;;;;5078672;28;39472;-76
2023/09/20 12:58:24;;;;;;;4.68;2.63;;;21.40;88.30;;;;;;5064271;28;36786;-77
2023/09/20 13:00:50;;;;;;;5.03;2.58;;;21.30;94.50;;;;;;5079699;28;37375;-78
2023/09/20 13:03:17;;;;;;;4.72;2.15;;;21.40;83.20;;;;;;5062328;28;38445;-77
2023/09/20 13:05:44;;;;;;;6.93;3.08;;;21.60;90.90;;;;;;5080364;28;38004;-78
2023/09/20 13:08:16;;;;;;;4.82;2.53;;;21.70;90.30;;;;;;5056606;28;37007;-78
2023/09/20 13:10:43;;;;;;;;;;;21.50;86.90;;;;;;5075808;28;37530;-77
2023/09/20 13:13:10;;;;;;;5.65;2.33;;;21.40;79.50;;;;;;5082610;28;39485;-78
2023/09/20 13:15:42;;;;;;;4.13;2.25;;;21.30;81.90;;;;;;5084474;28;38935;-78
2023/09/20 13:18:10;;;;;;;6.63;2.33;;;21.30;87.40;;;;;;5076551;28;39236;-78
2023/09/20 13:20:37;;;;;;;4.15;2.03;;;21.20;94.00;;;;;;5061526;28;36422;-77
2023/09/20 13:23:04;;;;;;;6.18;2.10;;;21.30;95.80;;;;;;5078128;28;40473;-77
2023/09/20 13:25:32;;;;;;;5.28;2.10;;;21.50;89.40;;;;;;5061154;28;36993;-76
2023/09/20 13:27:58;;;;;;;5.57;1.90;;;21.40;91.90;;;;;;5066663;28;36916;-77
2023/09/20 13:30:24;;;;;;;3.17;2.08;;;21.30;90.00;;;;;;5060837;28;36621;-78